Flight Track Log - Related Links

Times and Time Zones

All times are in EDT time to prevent confusion due to time zone crossing. See the CES5792 flight status page for this flight to view local times or setup timezone preferences in your user account.


Time Position Orientation Groundspeed Altitude Reporting Facility
EDT Latitude Longitude Course Direction KTS MPH feet Rate Location/Type
Fri 01:57:00 AM 28.3894 110.0150 249° West  Level Estimated
Fri 01:58:00 AM 28.3408 109.9011 244° Southwest  Level Estimated
Fri 01:59:00 AM 28.2921 109.7873 244° Southwest  Level Estimated
Fri 02:00:00 AM 28.2434 109.6735 244° Southwest  Level Estimated
Fri 02:01:00 AM 28.1945 109.5599 244° Southwest  Level Estimated
Fri 02:02:00 AM 28.1456 109.4464 244° Southwest  Level Estimated
Fri 02:03:00 AM 28.0965 109.3330 244° Southwest  Level Estimated
Fri 02:04:00 AM 28.0474 109.2197 244° Southwest  Level Estimated
Fri 02:05:00 AM 27.9982 109.1065 244° Southwest  Level Estimated
Fri 02:06:00 AM 27.9488 108.9934 244° Southwest  Level Estimated
Fri 02:07:00 AM 27.8994 108.8804 244° Southwest  Level Estimated
Fri 02:08:00 AM 27.8499 108.7675 244° Southwest  Level Estimated
Fri 02:09:00 AM 27.8003 108.6547 244° Southwest  Level Estimated
Fri 02:10:00 AM 27.7506 108.5420 244° Southwest  Level Estimated
Fri 02:11:00 AM 27.7009 108.4295 243° Southwest  Level Estimated
Fri 02:12:00 AM 27.6510 108.3170 243° Southwest  Level Estimated
Fri 02:13:00 AM 27.6010 108.2046 243° Southwest  Level Estimated
Fri 02:14:00 AM 27.5510 108.0923 243° Southwest  Level Estimated
Fri 02:15:00 AM 27.5008 107.9801 243° Southwest  Level Estimated
Fri 02:16:00 AM 27.4506 107.8681 243° Southwest  Level Estimated
Fri 02:17:00 AM 27.4003 107.7561 243° Southwest  Level Estimated
Fri 02:18:00 AM 27.3499 107.6442 243° Southwest  Level Estimated
Fri 02:19:00 AM 27.2994 107.5325 243° Southwest  Level Estimated
Fri 02:20:00 AM 27.2488 107.4208 243° Southwest  Level Estimated
Fri 02:21:00 AM 27.1981 107.3093 243° Southwest  Level Estimated
Fri 02:22:00 AM 27.1474 107.1978 243° Southwest  Level Estimated
Fri 02:23:00 AM 27.0965 107.0864 243° Southwest  Level Estimated
Fri 02:24:00 AM 27.0455 106.9752 243° Southwest  Level Estimated
Fri 02:25:00 AM 26.9945 106.8640 243° Southwest  Level Estimated
Fri 02:26:00 AM 26.9434 106.7530 243° Southwest  Level Estimated
Fri 02:27:00 AM 26.8922 106.6420 243° Southwest  Level Estimated
Fri 02:28:00 AM 26.8409 106.5312 243° Southwest  Level Estimated
Fri 02:29:00 AM 26.7896 106.4204 243° Southwest  Level Estimated
Fri 02:30:00 AM 26.7381 106.3098 243° Southwest  Level Estimated
Fri 02:31:00 AM 26.6865 106.1992 242° Southwest  Level Estimated
Fri 02:32:00 AM 26.6349 106.0888 242° Southwest  Level Estimated
Fri 02:33:00 AM 26.5832 105.9784 242° Southwest  Level Estimated
Fri 02:34:00 AM 26.5314 105.8682 242° Southwest  Level Estimated
Fri 02:35:00 AM 26.4795 105.7580 242° Southwest  Level Estimated
Fri 02:36:00 AM 26.4275 105.6479 242° Southwest  Level Estimated
Fri 02:37:00 AM 26.3755 105.5380 242° Southwest  Level Estimated
Fri 02:38:00 AM 26.3233 105.4281 242° Southwest  Level Estimated
Fri 02:39:00 AM 26.2711 105.3184 242° Southwest  Level Estimated
Fri 02:40:00 AM 26.2188 105.2087 242° Southwest  Level Estimated
Fri 02:41:00 AM 26.1664 105.0992 242° Southwest  Level Estimated
Fri 02:42:00 AM 26.1140 104.9897 242° Southwest  Level Estimated
Fri 02:43:00 AM 26.0614 104.8803 242° Southwest  Level Estimated
Fri 02:44:00 AM 26.0088 104.7711 242° Southwest  Level Estimated
Fri 02:45:00 AM 25.9560 104.6619 242° Southwest  Level Estimated
Fri 02:46:00 AM 25.9032 104.5528 242° Southwest  Level Estimated
Fri 02:47:00 AM 25.8503 104.4439 242° Southwest  Level Estimated
Fri 02:48:00 AM 25.7974 104.3350 242° Southwest  Level Estimated
Fri 02:49:00 AM 25.7443 104.2262 242° Southwest  Level Estimated
Fri 02:50:00 AM 25.6912 104.1176 242° Southwest  Level Estimated
Fri 02:51:00 AM 25.6380 104.0090 241° Southwest  Level Estimated
Fri 02:52:00 AM 25.5847 103.9005 241° Southwest  Level Estimated
Fri 02:53:00 AM 25.5314 103.7921 241° Southwest  Level Estimated
Fri 02:54:00 AM 25.4779 103.6838 241° Southwest  Level Estimated
Fri 02:55:00 AM 25.4244 103.5756 241° Southwest  Level Estimated
Fri 02:56:00 AM 25.3708 103.4675 241° Southwest  Level Estimated
Fri 02:57:00 AM 25.3171 103.3595 241° Southwest  Level Estimated
Fri 02:58:00 AM 25.2633 103.2516 241° Southwest  Level Estimated
Fri 02:59:00 AM 25.2095 103.1438 241° Southwest  Level Estimated
Fri 03:00:00 AM 25.1556 103.0361 241° Southwest  Level Estimated
Fri 03:01:00 AM 25.1019 102.9292 241° Southwest  Level Estimated
Fri 03:02:00 AM 25.1019 102.9292 North  Level Estimated
Fri 03:03:00 AM 25.1019 102.9292 North  Level Estimated
Fri 03:04:00 AM 25.1019 102.9292 North  Level Estimated
Fri 03:05:00 AM 25.1019 102.9292 North  Level Estimated
Fri 03:06:00 AM 25.1019 102.9292 North  Level Estimated
Fri 03:07:00 AM 25.1019 102.9292 North  Level Estimated
Fri 03:08:00 AM 25.1019 102.9292 North  Level Estimated
Fri 03:09:00 AM 25.1019 102.9292 North  Level Estimated
Fri 03:10:00 AM 25.1019 102.9292 North  Level Estimated
Fri 03:11:00 AM 25.1019 102.9292 North  Level Estimated
Fri 03:12:00 AM 25.1019 102.9292 North  Level Estimated
Fri 03:13:00 AM 25.1019 102.9292 North  Level Estimated
Fri 03:14:00 AM 25.1019 102.9292 North  Level Estimated

Login

Don't have an account? Register now (free) for customized features, flight alerts, and more!